createdAt,value
2019-01-30T00:04:02.080Z,23.03
2019-01-30T00:06:43.374Z,17.37
2019-01-30T00:09:24.006Z,23.27
2019-01-30T00:12:04.780Z,16.90
2019-01-30T00:14:46.278Z,20.10
2019-01-30T00:17:27.784Z,18.27
2019-01-30T00:20:08.772Z,21.63
2019-01-30T00:22:51.277Z,20.37
2019-01-30T00:25:32.379Z,20.70
2019-01-30T00:28:13.558Z,22.23
2019-01-30T00:30:54.815Z,19.40
2019-01-30T00:33:35.387Z,18.60
2019-01-30T00:36:16.052Z,24.00
2019-01-30T00:38:56.587Z,24.00
2019-01-30T00:41:25.731Z,20.83
2019-01-30T00:44:07.759Z,20.63
2019-01-30T00:46:49.263Z,19.87
2019-01-30T00:49:37.713Z,22.57
2019-01-30T00:55:02.332Z,18.27
2019-01-30T00:57:43.139Z,22.17
2019-01-30T01:00:15.182Z,23.67
2019-01-30T01:03:03.541Z,18.10
2019-01-30T01:05:44.153Z,20.67
2019-01-30T01:08:24.989Z,19.63
2019-01-30T01:11:06.977Z,15.47
2019-01-30T01:16:43.533Z,20.30
2019-01-30T01:19:24.162Z,20.23
2019-01-30T01:22:05.379Z,20.43
2019-01-30T01:24:46.502Z,21.07
2019-01-30T01:27:27.771Z,22.10
2019-01-30T01:30:08.994Z,20.00
2019-01-30T01:32:49.944Z,21.57
2019-01-30T01:35:31.192Z,18.53
2019-01-30T01:38:11.762Z,21.10
2019-01-30T01:40:52.372Z,21.50
2019-01-30T01:43:33.811Z,19.17
2019-01-30T01:46:15.432Z,19.63
2019-01-30T01:48:55.996Z,23.63
2019-01-30T01:51:36.564Z,25.10
2019-01-30T01:54:06.284Z,21.13
2019-01-30T01:59:54.639Z,22.27
2019-01-30T02:02:35.339Z,20.10
2019-01-30T02:05:16.728Z,19.83
2019-01-30T02:07:58.129Z,23.67
2019-01-30T02:10:38.803Z,25.93
2019-01-30T02:13:19.979Z,22.50
2019-01-30T02:16:01.200Z,24.10
2019-01-30T02:18:42.690Z,17.60
2019-01-30T02:21:23.921Z,18.97
2019-01-30T02:24:05.333Z,25.27
2019-01-30T02:26:45.941Z,25.20
2019-01-30T02:29:27.546Z,21.37
2019-01-30T02:32:08.626Z,23.00
2019-01-30T02:34:50.062Z,23.67
2019-01-30T02:37:31.306Z,20.73
2019-01-30T02:40:12.056Z,23.80
2019-01-30T02:42:41.242Z,23.73
2019-01-30T02:45:11.663Z,25.40
2019-01-30T02:53:41.868Z,29.23
2019-01-30T02:56:23.944Z,25.43
2019-01-30T02:59:05.059Z,24.83
2019-01-30T03:02:11.343Z,32.10
2019-01-30T03:04:40.885Z,25.57
2019-01-30T03:07:29.205Z,28.10
2019-01-30T03:10:12.375Z,26.40
2019-01-30T03:12:53.210Z,26.27
2019-01-30T03:15:34.441Z,23.80
2019-01-30T03:18:15.663Z,28.40
2019-01-30T03:20:56.974Z,32.37
2019-01-30T03:23:39.287Z,28.47
2019-01-30T03:26:20.117Z,27.40
2019-01-30T03:29:01.480Z,27.03
2019-01-30T03:31:33.284Z,26.63
2019-01-30T03:34:21.923Z,23.67
2019-01-30T03:37:03.254Z,28.87
2019-01-30T03:39:43.929Z,24.47
2019-01-30T03:42:24.586Z,31.70
2019-01-30T03:45:05.419Z,33.33
2019-01-30T03:47:46.690Z,26.23
2019-01-30T03:50:27.368Z,23.03
2019-01-30T03:53:08.599Z,29.50
2019-01-30T03:55:49.727Z,28.97
2019-01-30T03:58:30.498Z,29.97
2019-01-30T04:01:11.564Z,27.30
2019-01-30T04:03:50.989Z,32.70
2019-01-30T04:09:20.331Z,30.07
2019-01-30T04:12:01.696Z,25.93
2019-01-30T04:14:44.903Z,24.27
2019-01-30T04:17:26.052Z,35.17
2019-01-30T04:20:07.196Z,24.53
2019-01-30T04:22:36.306Z,26.40
2019-01-30T04:25:45.093Z,24.63
2019-01-30T04:28:33.729Z,25.50
2019-01-30T04:34:13.179Z,26.37
2019-01-30T04:36:54.389Z,28.70
2019-01-30T04:39:35.861Z,28.90
2019-01-30T04:42:17.359Z,28.33
2019-01-30T04:44:58.026Z,27.20
2019-01-30T04:47:39.139Z,25.80
2019-01-30T04:50:20.562Z,27.07
2019-01-30T04:53:01.614Z,28.43
2019-01-30T04:55:42.260Z,27.57
2019-01-30T04:58:22.916Z,31.90
2019-01-30T05:01:03.503Z,26.77
2019-01-30T05:03:44.103Z,27.40
2019-01-30T05:06:24.903Z,31.53
2019-01-30T05:09:06.458Z,26.37
2019-01-30T05:11:47.565Z,29.47
2019-01-30T05:14:29.037Z,28.43
2019-01-30T05:17:10.485Z,33.67
2019-01-30T05:19:51.714Z,32.03
2019-01-30T05:22:32.862Z,28.07
2019-01-30T05:25:14.739Z,32.87
2019-01-30T05:27:56.173Z,30.63
2019-01-30T05:30:28.733Z,33.30
2019-01-30T05:33:17.118Z,29.53
2019-01-30T05:39:06.795Z,35.57
2019-01-30T05:41:49.129Z,35.07
2019-01-30T05:44:30.394Z,34.97
2019-01-30T05:47:11.101Z,37.50
2019-01-30T05:49:53.280Z,37.30
2019-01-30T05:52:34.231Z,34.27
2019-01-30T05:55:14.716Z,37.63
2019-01-30T05:57:55.444Z,35.43
2019-01-30T06:00:39.855Z,38.07
2019-01-30T06:03:21.235Z,40.27
2019-01-30T06:06:02.370Z,42.37
2019-01-30T06:08:43.550Z,44.27
2019-01-30T06:11:24.740Z,39.10
2019-01-30T06:14:05.200Z,41.93
2019-01-30T06:16:46.308Z,38.40
2019-01-30T06:19:35.890Z,40.23
2019-01-30T06:22:05.404Z,46.87
2019-01-30T06:24:54.083Z,47.87
2019-01-30T06:27:35.430Z,38.00
2019-01-30T06:30:18.051Z,40.53
2019-01-30T06:32:58.807Z,43.70
2019-01-30T06:35:41.887Z,38.37
2019-01-30T06:38:24.205Z,41.00
2019-01-30T06:41:06.557Z,47.70
2019-01-30T06:43:47.822Z,42.70
2019-01-30T06:46:29.344Z,41.80
2019-01-30T06:49:12.781Z,46.57
2019-01-30T06:52:01.075Z,44.03
2019-01-30T06:54:42.067Z,51.63
2019-01-30T06:57:23.187Z,51.70
2019-01-30T07:00:03.938Z,54.00
2019-01-30T07:02:45.254Z,52.60
2019-01-30T07:05:27.007Z,55.50
2019-01-30T07:08:08.824Z,54.83
2019-01-30T07:10:49.856Z,58.80
2019-01-30T07:13:31.349Z,67.40
2019-01-30T07:16:12.312Z,64.07
2019-01-30T07:18:53.702Z,80.37
2019-01-30T07:21:35.280Z,62.63
2019-01-30T07:24:16.182Z,65.43
2019-01-30T07:26:56.752Z,66.60
2019-01-30T07:29:37.633Z,68.40
2019-01-30T07:32:07.538Z,65.60
2019-01-30T07:37:45.177Z,69.13
2019-01-30T07:40:25.869Z,67.47
2019-01-30T07:43:08.845Z,73.00
2019-01-30T07:45:49.835Z,68.47
2019-01-30T07:51:16.160Z,74.63
2019-01-30T07:54:04.579Z,72.37
2019-01-30T07:59:32.005Z,70.83
2019-01-30T08:05:22.739Z,79.73
2019-01-30T08:08:03.616Z,89.73
2019-01-30T08:10:44.884Z,79.47
2019-01-30T08:13:26.116Z,89.73
2019-01-30T08:16:07.290Z,87.90
2019-01-30T08:18:36.484Z,92.50
2019-01-30T08:24:19.750Z,80.73
2019-01-30T08:27:01.337Z,80.77
2019-01-30T08:29:43.444Z,82.60
2019-01-30T08:32:25.312Z,87.03
2019-01-30T08:35:06.714Z,96.97
2019-01-30T08:37:47.875Z,90.80
2019-01-30T08:40:28.469Z,89.53
2019-01-30T08:43:09.839Z,91.07
2019-01-30T08:45:51.329Z,90.17
2019-01-30T08:48:32.711Z,82.60
2019-01-30T08:51:13.981Z,99.37
2019-01-30T08:53:55.206Z,102.53
2019-01-30T08:56:39.027Z,99.27
2019-01-30T08:59:06.981Z,108.63
2019-01-30T09:01:36.114Z,110.73
2019-01-30T09:04:07.818Z,98.37
2019-01-30T09:06:56.095Z,113.60
2019-01-30T09:09:35.513Z,113.03
2019-01-30T09:15:25.764Z,106.70
2019-01-30T09:18:08.066Z,101.17
2019-01-30T09:20:48.692Z,105.93
2019-01-30T09:23:29.735Z,107.67
2019-01-30T09:26:11.069Z,107.13
2019-01-30T09:32:04.497Z,113.17
2019-01-30T09:34:45.670Z,99.30
2019-01-30T09:37:27.342Z,85.20
2019-01-30T09:40:08.268Z,82.70
2019-01-30T09:42:51.909Z,85.07
2019-01-30T09:45:34.285Z,109.30
2019-01-30T09:48:15.823Z,108.17
2019-01-30T09:50:57.220Z,109.37
2019-01-30T09:53:38.457Z,107.13
2019-01-30T09:56:19.891Z,111.83
2019-01-30T09:59:01.000Z,104.80
2019-01-30T10:01:41.743Z,107.30
2019-01-30T10:04:23.069Z,116.50
2019-01-30T10:06:52.585Z,119.30
2019-01-30T10:12:48.514Z,112.20
2019-01-30T10:15:29.577Z,109.57
2019-01-30T10:18:10.818Z,101.83
2019-01-30T10:20:51.537Z,105.03
2019-01-30T10:23:32.316Z,96.00
2019-01-30T10:26:13.633Z,98.47
2019-01-30T10:28:56.753Z,98.23
2019-01-30T10:31:45.138Z,99.30
2019-01-30T10:34:34.368Z,99.27
2019-01-30T10:37:03.851Z,100.63
2019-01-30T10:39:34.549Z,93.43
2019-01-30T10:42:23.782Z,96.17
2019-01-30T10:50:53.808Z,96.60
2019-01-30T10:53:35.358Z,87.13
2019-01-30T10:56:16.692Z,90.70
2019-01-30T10:58:57.808Z,97.13
2019-01-30T11:01:38.513Z,90.90
2019-01-30T11:04:20.651Z,91.80
2019-01-30T11:07:01.362Z,92.33
2019-01-30T11:09:42.479Z,93.57
2019-01-30T11:12:23.977Z,78.70
2019-01-30T11:15:05.092Z,66.57
2019-01-30T11:17:46.057Z,69.57
2019-01-30T11:20:34.359Z,60.13
2019-01-30T11:23:15.341Z,59.43
2019-01-30T11:25:57.027Z,58.23
2019-01-30T11:31:40.756Z,69.97
2019-01-30T11:34:29.070Z,70.27
2019-01-30T11:37:10.095Z,75.20
2019-01-30T11:39:51.677Z,73.13
2019-01-30T11:42:32.352Z,71.80
2019-01-30T11:45:13.230Z,73.73
2019-01-30T11:47:54.524Z,68.27
2019-01-30T11:50:35.804Z,74.87
2019-01-30T11:53:44.682Z,62.50
2019-01-30T11:56:33.070Z,59.77
2019-01-30T11:59:13.752Z,52.70
2019-01-30T12:01:55.032Z,46.23
2019-01-30T12:04:36.184Z,42.83
2019-01-30T12:07:17.549Z,45.33
2019-01-30T12:09:59.037Z,43.70
2019-01-30T12:12:40.251Z,41.93
2019-01-30T12:15:21.399Z,45.47
2019-01-30T12:17:53.095Z,40.47
2019-01-30T12:20:41.485Z,39.27
2019-01-30T12:23:30.011Z,40.57
2019-01-30T12:26:10.847Z,41.00
2019-01-30T12:28:51.609Z,47.67
2019-01-30T12:31:32.254Z,50.57
2019-01-30T12:34:13.633Z,56.90
2019-01-30T12:37:22.422Z,54.20
2019-01-30T12:43:11.598Z,57.43
2019-01-30T12:45:52.917Z,55.87
2019-01-30T12:48:34.235Z,57.03
2019-01-30T12:51:03.466Z,55.37
2019-01-30T12:53:51.846Z,50.73
2019-01-30T12:56:40.220Z,51.23
2019-01-30T12:59:21.050Z,54.17
2019-01-30T13:02:02.288Z,59.30
2019-01-30T13:04:43.280Z,55.93
2019-01-30T13:07:23.829Z,53.03
2019-01-30T13:10:04.642Z,53.87
2019-01-30T13:12:46.047Z,50.50
2019-01-30T13:15:27.150Z,48.37
2019-01-30T13:18:17.620Z,50.33
2019-01-30T13:20:50.421Z,45.97
2019-01-30T13:23:31.673Z,55.30
2019-01-30T13:26:12.875Z,46.87
2019-01-30T13:28:53.363Z,38.03
2019-01-30T13:31:34.900Z,37.40
2019-01-30T13:34:14.453Z,39.23
2019-01-30T13:36:55.831Z,35.43
2019-01-30T13:39:37.156Z,40.03
2019-01-30T13:42:06.716Z,44.63
2019-01-30T13:44:55.122Z,47.03
2019-01-30T13:47:43.647Z,41.87
2019-01-30T13:50:25.137Z,50.23
2019-01-30T13:53:06.186Z,47.63
2019-01-30T13:55:47.679Z,43.53
2019-01-30T13:58:28.425Z,45.60
2019-01-30T14:01:19.001Z,46.37
2019-01-30T14:04:07.521Z,46.30
2019-01-30T14:09:44.582Z,46.73
2019-01-30T14:12:26.010Z,48.17
2019-01-30T14:15:07.481Z,42.30
2019-01-30T14:17:37.180Z,46.50
2019-01-30T14:20:07.380Z,45.83
2019-01-30T14:22:55.814Z,44.07
2019-01-30T14:28:51.221Z,46.80
2019-01-30T14:31:32.152Z,45.23
2019-01-30T14:34:13.445Z,44.37
2019-01-30T14:36:55.143Z,43.43
2019-01-30T14:39:36.183Z,47.53
2019-01-30T14:42:17.428Z,48.27
2019-01-30T14:44:58.276Z,47.50
2019-01-30T14:47:39.251Z,48.03
2019-01-30T14:50:20.231Z,42.93
2019-01-30T14:53:01.432Z,40.97
2019-01-30T14:55:42.554Z,45.73
2019-01-30T14:58:26.064Z,42.63
2019-01-30T15:01:07.593Z,42.57
2019-01-30T15:03:49.310Z,72.50
2019-01-30T15:06:30.538Z,43.93
2019-01-30T15:09:13.992Z,44.43
2019-01-30T15:20:51.912Z,40.90
2019-01-30T15:23:32.985Z,39.67
2019-01-30T15:26:13.653Z,34.27
2019-01-30T15:28:54.364Z,34.30
2019-01-30T15:31:35.068Z,34.93
2019-01-30T15:34:16.383Z,34.67
2019-01-30T15:36:58.280Z,26.83
2019-01-30T15:39:39.601Z,22.60
2019-01-30T15:42:21.079Z,14.10
2019-01-30T15:48:01.108Z,7.83
2019-01-30T15:50:42.318Z,6.37
2019-01-30T15:53:22.866Z,4.53
2019-01-30T15:56:03.765Z,7.17
2019-01-30T15:58:45.153Z,7.53
2019-01-30T16:01:25.759Z,4.07
2019-01-30T16:04:07.202Z,4.03
2019-01-30T16:06:48.872Z,5.57
2019-01-30T16:09:29.974Z,6.03
2019-01-30T16:12:11.185Z,3.87
2019-01-30T16:14:52.403Z,8.57
2019-01-30T16:17:33.395Z,5.43
2019-01-30T16:20:14.180Z,4.27
2019-01-30T16:22:55.614Z,4.43
2019-01-30T16:25:36.798Z,4.77
2019-01-30T16:28:17.986Z,7.27
2019-01-30T16:30:59.226Z,5.43
2019-01-30T16:33:47.862Z,5.87
2019-01-30T16:36:30.608Z,8.93
2019-01-30T16:39:11.965Z,7.00
2019-01-30T16:41:41.365Z,6.63
2019-01-30T16:44:29.914Z,5.07
2019-01-30T16:47:18.269Z,4.63
2019-01-30T16:49:59.353Z,8.20
2019-01-30T16:52:40.606Z,5.33
2019-01-30T16:55:21.887Z,8.20
2019-01-30T16:58:03.049Z,6.33
2019-01-30T17:00:33.118Z,9.53
2019-01-30T17:03:21.467Z,5.83
2019-01-30T17:06:07.651Z,5.73
2019-01-30T17:08:45.447Z,6.50
2019-01-30T17:11:24.907Z,4.83
2019-01-30T17:14:05.615Z,5.53
2019-01-30T17:16:46.841Z,8.30
2019-01-30T17:19:28.059Z,3.80
2019-01-30T17:22:08.886Z,10.23
2019-01-30T17:28:09.970Z,7.43
2019-01-30T17:31:00.232Z,5.80
2019-01-30T17:33:40.906Z,8.57
2019-01-30T17:36:21.448Z,5.33
2019-01-30T17:39:02.463Z,6.77
2019-01-30T17:41:43.134Z,3.47
2019-01-30T17:44:24.524Z,4.27
2019-01-30T17:47:06.018Z,4.10
2019-01-30T17:49:47.276Z,6.60
2019-01-30T17:52:28.680Z,6.40
2019-01-30T17:55:10.158Z,3.90
2019-01-30T17:57:51.628Z,7.07
2019-01-30T18:03:42.123Z,5.73
2019-01-30T18:06:29.516Z,6.53
2019-01-30T18:09:06.350Z,6.17
2019-01-30T18:11:47.040Z,6.60
2019-01-30T18:14:28.194Z,8.77
2019-01-30T18:17:09.225Z,11.10
2019-01-30T18:19:50.021Z,11.97
2019-01-30T18:22:30.810Z,9.03
2019-01-30T18:25:11.104Z,9.07
2019-01-30T18:30:59.526Z,6.97
2019-01-30T18:33:40.214Z,7.43
2019-01-30T18:36:21.619Z,7.50
2019-01-30T18:39:02.640Z,6.70
2019-01-30T18:41:44.037Z,6.70
2019-01-30T18:44:25.486Z,5.80
2019-01-30T18:47:06.774Z,5.77
2019-01-30T18:49:48.156Z,14.47
2019-01-30T18:52:28.848Z,12.00
2019-01-30T18:55:10.085Z,10.10
2019-01-30T18:57:51.525Z,10.13
2019-01-30T19:00:33.113Z,10.57
2019-01-30T19:03:03.174Z,9.00
2019-01-30T19:08:51.570Z,8.17
2019-01-30T19:11:32.229Z,10.87
2019-01-30T19:14:13.614Z,11.00
2019-01-30T19:16:54.242Z,14.97
2019-01-30T19:19:24.164Z,10.67
2019-01-30T19:22:12.542Z,14.63
2019-01-30T19:24:54.507Z,11.03
2019-01-30T19:27:36.304Z,10.53
2019-01-30T19:30:45.994Z,13.33
2019-01-30T19:36:37.633Z,14.73
2019-01-30T19:42:29.055Z,10.90
2019-01-30T19:48:17.381Z,13.97
2019-01-30T19:51:05.972Z,9.40
2019-01-30T19:53:47.070Z,15.10
2019-01-30T19:56:28.436Z,9.13
2019-01-30T19:59:17.349Z,12.67
2019-01-30T20:01:50.279Z,13.60
2019-01-30T20:04:30.900Z,10.20
2019-01-30T20:07:14.752Z,11.77
2019-01-30T20:09:54.001Z,13.30
2019-01-30T20:12:34.756Z,11.60
2019-01-30T20:15:16.237Z,10.40
2019-01-30T20:17:57.280Z,12.97
2019-01-30T20:20:38.737Z,22.67
2019-01-30T20:23:20.215Z,10.83
2019-01-30T20:26:01.612Z,13.13
2019-01-30T20:28:42.709Z,16.63
2019-01-30T20:31:23.360Z,13.20
2019-01-30T20:34:10.342Z,10.57
2019-01-30T20:36:47.389Z,9.33
2019-01-30T20:39:36.555Z,10.57
2019-01-30T20:42:17.747Z,9.80
2019-01-30T20:44:59.171Z,16.23
2019-01-30T20:47:40.509Z,8.80
2019-01-30T20:50:21.670Z,13.23
2019-01-30T20:53:03.184Z,16.67
2019-01-30T20:55:44.060Z,12.97
2019-01-30T20:58:25.471Z,13.47
2019-01-30T21:01:06.958Z,10.77
2019-01-30T21:03:47.652Z,21.23
2019-01-30T21:06:29.200Z,11.87
2019-01-30T21:09:10.374Z,14.43
2019-01-30T21:11:54.313Z,12.97
2019-01-30T21:14:33.742Z,11.30
2019-01-30T21:17:14.488Z,11.07
2019-01-30T21:19:55.631Z,7.97
2019-01-30T21:22:36.646Z,11.33
2019-01-30T21:25:17.969Z,13.17
2019-01-30T21:27:59.344Z,13.97
2019-01-30T21:33:38.651Z,11.27
2019-01-30T21:36:20.143Z,9.83
2019-01-30T21:39:01.408Z,12.27
2019-01-30T21:41:43.086Z,12.23
2019-01-30T21:44:23.867Z,12.27
2019-01-30T21:47:05.070Z,11.50
2019-01-30T21:49:46.414Z,10.37
2019-01-30T21:52:27.972Z,12.53
2019-01-30T21:55:08.620Z,9.70
2019-01-30T21:57:50.097Z,10.17
2019-01-30T22:00:30.839Z,18.27
2019-01-30T22:06:09.507Z,22.53
2019-01-30T22:08:50.717Z,10.40
2019-01-30T22:11:32.419Z,12.37
2019-01-30T22:14:13.722Z,15.83
2019-01-30T22:16:54.792Z,15.23
2019-01-30T22:19:36.120Z,11.73
2019-01-30T22:22:17.729Z,15.70
2019-01-30T22:24:58.349Z,12.53
2019-01-30T22:27:39.816Z,15.50
2019-01-30T22:30:21.034Z,10.23
2019-01-30T22:33:02.478Z,14.07
2019-01-30T22:38:25.251Z,11.40
2019-01-30T22:44:14.367Z,15.43
2019-01-30T22:46:55.584Z,13.67
2019-01-30T22:49:45.473Z,10.10
2019-01-30T22:52:33.902Z,13.23
2019-01-30T22:55:14.838Z,12.53
2019-01-30T22:57:56.155Z,9.80
2019-01-30T23:00:56.667Z,13.57
2019-01-30T23:03:38.043Z,10.77
2019-01-30T23:06:19.077Z,15.00
2019-01-30T23:09:13.031Z,18.63
2019-01-30T23:11:53.677Z,16.10
2019-01-30T23:14:35.149Z,12.57
2019-01-30T23:17:15.714Z,16.10
2019-01-30T23:19:57.119Z,18.47
2019-01-30T23:22:37.901Z,15.57
2019-01-30T23:25:19.118Z,16.77
2019-01-30T23:27:59.659Z,14.67
2019-01-30T23:30:40.364Z,12.80
2019-01-30T23:33:21.340Z,16.83
2019-01-30T23:36:02.170Z,14.53
2019-01-30T23:38:43.408Z,14.60
2019-01-30T23:41:24.541Z,20.80
2019-01-30T23:44:05.638Z,13.70
2019-01-30T23:46:47.109Z,15.93
2019-01-30T23:49:54.786Z,13.73
2019-01-30T23:52:35.420Z,12.97
2019-01-30T23:55:16.123Z,20.33
2019-01-30T23:57:57.603Z,14.50
